x

West Sea Otter (46204) Wave Buoy

9:00 - Wed 25th May 2016 All times are PDT. -7 hours from GMT.

  • Sig Wave height 4.3ft
  • Peak Period 5s
  • Wind
    13mph, 16mph gusts
  • Sea Temp 54°f
  • Aire Temp 52°f
  • Sea Pressure 1022.7mb
  • West Sea Otter
  • West Sea Otter

More Historic Weather Station data

Upgrade to MSW Pro to gain access to the past 30 days of data for over 8000 Wavebouys and Weather Stations around the globe.

Join Pro

Comparision Forecast

View Surf forecast
   
mié 05/25 9:00 4.5ft 5s 13 16 mph 1022.7mb 54f 52f
8:00 4.5ft 5s 16 18 mph 1022.2mb 53f 52f
7:00 4.5ft 6s 16 20 mph 1021.7mb 53f 52f
6:00 4.5ft 8s 18 20 mph 1021.5mb 53f 52f
5:00 4.5ft 7s 18 20 mph 1021.1mb 53f 52f
4:00 4ft 8s 18 20 mph 1020.7mb 53f 52f
3:00 4.5ft 8s 16 20 mph 1020.6mb 53f 52f
2:00 4.5ft 8s 13 18 mph 1020.3mb 53f 53f
1:00 4.5ft 8s 13 16 mph 1020.1mb 53f 52f
12:00 4.5ft 7s 13 16 mph 1020mb 53f 52f
mar 05/24 11:00 4.5ft 8s 16 18 mph 1019.9mb 53f 52f
10:00 4.5ft 8s 16 20 mph 1019.6mb 54f 52f
9:00 4ft 8s 16 18 mph 1019.4mb 54f 53f
8:00 4ft 9s 13 16 mph 1019.2mb 54f 53f
7:00 4.5ft 9s 13 16 mph 1019.1mb 54f 53f
6:00 5ft 9s 13 16 mph 1019.1mb 54f 53f
5:00 5ft 9s 13 16 mph 1019.1mb 54f 53f
4:00 5ft 10s 13 16 mph 1019mb 53f 52f
3:00 5.5ft 5s 13 18 mph 1018.9mb 53f 52f
2:00 5.5ft 5s 18 20 mph 1018.8mb 53f 52f
1:00 5.5ft 9s 16 18 mph 1018.7mb 53f 50f
12:00 5.5ft 9s 18 22 mph 1018.1mb 53f 51f
11:00 5ft 9s 16 18 mph 1017.9mb 53f 51f
10:00 5ft 9s 16 20 mph 1017.6mb 53f 52f
9:00 4.5ft 10s 16 20 mph 1017.4mb 53f 52f
8:00 4.5ft 10s 16 20 mph 1017.1mb 54f 52f
7:00 5ft 10s 18 22 mph 1016.8mb 54f 53f
6:00 5ft 10s 16 18 mph 1016.6mb 53f 52f
5:00 5ft 9s 16 18 mph 1016.5mb 53f 52f
4:00 5.5ft 9s 18 20 mph 1016.2mb 53f 52f
3:00 6ft 10s 20 22 mph 1016.1mb 53f 52f
2:00 6ft 9s 18 20 mph 1015.9mb 53f 53f
1:00 6ft 9s 18 22 mph 1016mb 53f 53f
12:00 6ft 10s 16 18 mph 1016.2mb 53f 52f
lun 05/23 11:00 5.5ft 9s 13 16 mph 1016.4mb 53f 53f
10:00 5ft 8s 13 16 mph 1016.3mb 54f 53f
9:00 5ft 9s 13
mph
1015.9mb 54f 53f
8:00 5.5ft 10s 11 13 mph 1015.9mb 54f 53f
7:00 5.5ft 10s 11 13 mph 1015.9mb 54f 53f
6:00 5.5ft 10s 13 16 mph 1015.6mb 54f 53f
5:00 6.5ft 10s 13 18 mph 1015.7mb 54f 53f
4:00 7ft 10s 16 20 mph 1015.9mb 54f 53f
3:00 6.5ft 8s 16 18 mph 1015.8mb 54f 53f
2:00 7ft 10s 18 20 mph 1015.5mb 53f 53f
1:00 7ft 8s 18 20 mph 1015.4mb 53f 53f
12:00 7ft 9s 16 18 mph 1015.3mb 53f 52f
11:00 7ft 9s 16 20 mph 1015.3mb 53f 52f
10:00 6.5ft 9s 16 20 mph 1015.2mb 53f 52f
9:00 6ft 9s 18 20 mph 1015mb 53f 52f
8:00 6ft 10s 18 20 mph 1014.7mb 53f 52f
7:00 6ft 10s 16 20 mph 1014.6mb 53f 52f
6:00 5.5ft 11s 16 18 mph 1014.5mb 54f 52f
5:00 5ft 9s 13 16 mph 1014.1mb 54f 53f
4:00 5.5ft 11s 11 13 mph 1014.1mb 54f 52f
3:00 5.5ft 10s 11 13 mph 1014.1mb 54f 53f
2:00 6ft 10s 9 13 mph 1014.1mb 54f 53f
1:00 6ft 10s 11 16 mph 1014mb 53f 53f
12:00 6ft 10s 9 11 mph 1014.2mb 53f 53f
dom 05/22 11:00 5.5ft 10s 9 11 mph 1014.3mb 54f 54f
10:00 6ft 9s 9
mph
1014.1mb 55f 54f
9:00 5ft 9s 7 9 mph 1013.9mb 55f 54f
8:00 5ft 9s 9 11 mph 1013.8mb 56f 54f
7:00 5ft 9s 7 9 mph 1013.9mb 56f 55f
6:00 5ft 9s 7 9 mph 1013.6mb 56f 54f
5:00 4.5ft 10s 7 9 mph 1013.6mb 57f 55f
4:00 4.5ft 10s 9 13 mph 1013.4mb 57f 55f
3:00 4.5ft 8s 7 13 mph 1013.2mb 56f 54f
2:00 4.5ft 8s 9 13 mph 1013mb 55f 54f
1:00 4.5ft 8s 9 11 mph 1012.8mb 55f 53f
12:00 4ft 8s 11 18 mph 1012.8mb 54f 53f
11:00 4ft 8s 9 13 mph 1012.6mb 53f 52f
10:00 3.5ft 8s 4 7 mph 1012.7mb 53f 51f
9:00 3.5ft 8s 11 13 mph 1012mb 53f 51f
8:00 3.5ft 8s 11 13 mph 1011.6mb 53f 51f
7:00 3.5ft 8s 13 16 mph 1011.1mb 53f 51f
6:00 3ft 8s 13 18 mph 1010.7mb 53f 51f
5:00 3ft 8s 13 16 mph 1010.1mb 53f 51f
4:00 3ft 8s 9 13 mph 1009.6mb 53f 50f
3:00 3.5ft 7s 11 13 mph 1009.3mb 54f 51f
2:00 3.5ft 6s 9 11 mph 1008.9mb 53f 53f
1:00 3.5ft 7s 7 9 mph 1009mb 53f 53f
12:00 3.5ft 7s 4 7 mph 1008.8mb 53f 53f
sáb 05/21 11:00 3.5ft 7s 7 9 mph 1008.3mb 54f 53f
10:00 3.5ft 8s 7 9 mph 1008.3mb 54f 53f
9:00 3.5ft 8s 7 9 mph 1007.9mb 54f 53f
8:00 3.5ft 8s 11 16 mph 1007.6mb 54f 53f
7:00 3.5ft 8s 11 13 mph 1007.3mb 54f 54f
6:00 3.5ft 8s 13 18 mph 1007mb 54f 54f